createdAt,value
2023-04-28T00:00:14.705Z,92386.81
2023-04-28T00:02:41.533Z,92432.94
2023-04-28T00:05:08.419Z,92420.19
2023-04-28T00:07:35.302Z,92434.09
2023-04-28T00:10:01.613Z,92418.19
2023-04-28T00:12:27.950Z,92420.47
2023-04-28T00:14:54.751Z,92398.19
2023-04-28T00:17:21.134Z,92392.72
2023-04-28T00:19:47.480Z,92381.38
2023-04-28T00:22:14.308Z,92390.13
2023-04-28T00:24:41.769Z,92380.56
2023-04-28T00:27:08.121Z,92354.03
2023-04-28T00:29:34.819Z,92361.72
2023-04-28T00:32:01.231Z,92372.94
2023-04-28T00:34:27.979Z,92373.16
2023-04-28T00:36:54.306Z,92371.03
2023-04-28T00:39:22.736Z,92350.81
2023-04-28T00:41:49.617Z,92334.91
2023-04-28T00:44:16.087Z,92354.09
2023-04-28T00:46:42.740Z,92351.31
2023-04-28T00:49:11.237Z,92356.81
2023-04-28T00:51:37.578Z,92361.41
2023-04-28T00:54:04.082Z,92372.59
2023-04-28T00:56:33.724Z,92345.97
2023-04-28T00:59:00.122Z,92329.66
2023-04-28T01:01:26.916Z,92318.16
2023-04-28T01:03:54.205Z,92310.75
2023-04-28T01:06:21.077Z,92315.66
2023-04-28T01:08:51.074Z,92303.19
2023-04-28T01:11:17.679Z,92318.44
2023-04-28T01:13:44.078Z,92321.94
2023-04-28T01:16:11.795Z,92338.84
2023-04-28T01:18:39.204Z,92342.78
2023-04-28T01:21:05.558Z,92386.13
2023-04-28T01:23:32.239Z,92393.47
2023-04-28T01:25:58.569Z,92401.81
2023-04-28T01:28:24.911Z,92392.00
2023-04-28T01:30:51.913Z,92369.78
2023-04-28T01:33:18.266Z,92359.00
2023-04-28T01:35:44.640Z,92338.97
2023-04-28T01:38:11.509Z,92328.31
2023-04-28T01:40:37.846Z,92296.41
2023-04-28T01:43:04.222Z,92303.09
2023-04-28T01:45:31.291Z,92291.84
2023-04-28T01:47:57.650Z,92288.16
2023-04-28T01:50:23.998Z,92282.31
2023-04-28T01:52:50.890Z,92289.72
2023-04-28T01:55:17.213Z,92288.00
2023-04-28T01:57:43.519Z,92284.97
2023-04-28T02:00:10.832Z,92308.13
2023-04-28T02:02:37.345Z,92329.97
2023-04-28T02:05:03.880Z,92332.84
2023-04-28T02:07:30.682Z,92340.75
2023-04-28T02:09:57.074Z,92338.81
2023-04-28T02:12:23.449Z,92343.03
2023-04-28T02:14:51.805Z,92336.59
2023-04-28T02:17:18.119Z,92341.81
2023-04-28T02:19:44.444Z,92365.38
2023-04-28T02:22:11.583Z,92383.31
2023-04-28T02:24:38.534Z,92374.47
2023-04-28T02:27:05.640Z,92362.19
2023-04-28T02:29:32.589Z,92370.09
2023-04-28T02:31:59.120Z,92358.38
2023-04-28T02:34:25.492Z,92341.00
2023-04-28T02:36:52.194Z,92366.44
2023-04-28T02:39:18.510Z,92364.22
2023-04-28T02:41:44.844Z,92380.06
2023-04-28T02:44:11.701Z,92389.66
2023-04-28T02:46:38.085Z,92389.34
2023-04-28T02:49:04.435Z,92406.31
2023-04-28T02:51:31.939Z,92403.28
2023-04-28T02:53:58.251Z,92388.66
2023-04-28T02:56:24.660Z,92403.19
2023-04-28T02:58:51.588Z,92389.25
2023-04-28T03:01:18.027Z,92374.22
2023-04-28T03:03:44.547Z,92354.16
2023-04-28T03:06:11.311Z,92342.97
2023-04-28T03:08:37.691Z,92321.41
2023-04-28T03:11:04.465Z,92305.56
2023-04-28T03:13:31.414Z,92287.44
2023-04-28T03:15:57.866Z,92268.75
2023-04-28T03:18:24.347Z,92257.22
2023-04-28T03:20:51.248Z,92262.41
2023-04-28T03:23:17.819Z,92240.09
2023-04-28T03:25:44.140Z,92225.03
2023-04-28T03:28:11.486Z,92224.81
2023-04-28T03:30:37.807Z,92232.75
2023-04-28T03:33:04.210Z,92226.41
2023-04-28T03:35:30.593Z,92207.34
2023-04-28T03:37:57.292Z,92205.56
2023-04-28T03:40:24.047Z,92208.31
2023-04-28T03:42:50.374Z,92198.31
2023-04-28T03:45:16.782Z,92200.78
2023-04-28T03:47:43.752Z,92210.06
2023-04-28T03:50:10.401Z,92209.28
2023-04-28T03:52:36.721Z,92185.59
2023-04-28T03:55:03.425Z,92185.19
2023-04-28T03:57:29.762Z,92157.69
2023-04-28T03:59:56.794Z,92176.69
2023-04-28T04:02:23.294Z,92166.53
2023-04-28T04:04:49.895Z,92153.41
2023-04-28T04:07:18.859Z,92158.13
2023-04-28T04:09:45.213Z,92151.63
2023-04-28T04:12:11.525Z,92160.84
2023-04-28T04:14:38.217Z,92147.53
2023-04-28T04:17:04.561Z,92128.56
2023-04-28T04:19:31.201Z,92118.19
2023-04-28T04:21:57.606Z,92118.00
2023-04-28T04:24:24.005Z,92136.19
2023-04-28T04:26:50.774Z,92114.47
2023-04-28T04:29:17.351Z,92113.56
2023-04-28T04:31:45.432Z,92146.28
2023-04-28T04:34:12.741Z,92132.34
2023-04-28T04:36:39.114Z,92106.63
2023-04-28T04:39:05.451Z,92100.63
2023-04-28T04:41:32.255Z,92105.00
2023-04-28T04:43:58.603Z,92088.72
2023-04-28T04:46:25.591Z,92077.03
2023-04-28T04:48:52.113Z,92078.72
2023-04-28T04:51:18.486Z,92068.94
2023-04-28T04:53:45.478Z,92037.88
2023-04-28T04:56:12.135Z,92014.91
2023-04-28T04:58:38.537Z,92032.06
2023-04-28T05:01:05.658Z,92049.63
2023-04-28T05:03:32.484Z,92018.72
2023-04-28T05:05:58.965Z,91993.16
2023-04-28T05:08:25.322Z,91952.31
2023-04-28T05:10:52.123Z,91933.28
2023-04-28T05:13:18.636Z,91917.66
2023-04-28T05:15:45.106Z,91872.97
2023-04-28T05:18:14.039Z,91823.09
2023-04-28T05:20:40.672Z,91787.19
2023-04-28T05:23:07.096Z,91753.63
2023-04-28T05:25:33.785Z,91716.94
2023-04-28T05:28:04.681Z,91685.41
2023-04-28T05:30:31.446Z,91647.13
2023-04-28T05:32:57.996Z,91625.50
2023-04-28T05:35:24.569Z,91615.88
2023-04-28T05:37:51.585Z,91610.09
2023-04-28T05:40:18.335Z,91606.03
2023-04-28T05:42:44.679Z,91576.97
2023-04-28T05:45:12.146Z,91562.81
2023-04-28T05:47:38.686Z,91553.34
2023-04-28T05:50:05.600Z,91526.28
2023-04-28T05:52:32.261Z,91504.84
2023-04-28T05:54:58.589Z,91467.81
2023-04-28T05:57:25.620Z,91460.34
2023-04-28T05:59:51.986Z,91441.34
2023-04-28T06:02:20.461Z,91409.28
2023-04-28T06:04:48.670Z,91382.38
2023-04-28T06:07:15.497Z,91350.00
2023-04-28T06:09:41.855Z,91318.53
2023-04-28T06:12:08.244Z,91299.59
2023-04-28T06:14:36.678Z,91263.66
2023-04-28T06:17:03.728Z,91230.03
2023-04-28T06:19:30.103Z,91202.78
2023-04-28T06:21:56.437Z,91172.03
2023-04-28T06:24:23.338Z,91129.22
2023-04-28T06:26:49.821Z,91017.56
2023-04-28T06:29:16.212Z,90987.41
2023-04-28T06:31:42.977Z,90957.16
2023-04-28T06:34:09.468Z,90945.81
2023-04-28T06:36:35.820Z,90934.97
2023-04-28T06:39:03.010Z,90893.69
2023-04-28T06:41:29.381Z,90845.66
2023-04-28T06:43:55.897Z,90817.66
2023-04-28T06:46:22.710Z,91845.38
2023-04-28T06:48:49.124Z,91945.44
2023-04-28T06:51:15.584Z,91961.38
2023-04-28T06:53:42.148Z,91947.56
2023-04-28T06:56:11.035Z,91921.13
2023-04-28T06:58:38.035Z,91902.59
2023-04-28T07:01:05.954Z,91878.19
2023-04-28T07:03:32.472Z,91866.06
2023-04-28T07:05:59.224Z,91824.09
2023-04-28T07:08:26.250Z,91815.38
2023-04-28T07:10:52.594Z,91853.69
2023-04-28T07:13:19.341Z,91787.25
2023-04-28T07:15:45.745Z,91756.88
2023-04-28T07:18:12.166Z,91729.03
2023-04-28T07:20:39.123Z,91716.41
2023-04-28T07:23:05.484Z,91682.47
2023-04-28T07:25:32.095Z,91678.91
2023-04-28T07:27:58.836Z,91663.78
2023-04-28T07:30:28.315Z,91661.28
2023-04-28T07:32:55.330Z,91646.94
2023-04-28T07:35:22.099Z,91631.06
2023-04-28T07:37:48.853Z,91608.81
2023-04-28T07:40:15.691Z,91578.13
2023-04-28T07:42:42.302Z,91557.44
2023-04-28T07:45:09.494Z,91545.44
2023-04-28T07:47:36.518Z,91532.50
2023-04-28T07:50:05.135Z,91517.53
2023-04-28T07:52:32.800Z,91494.47
2023-04-28T07:54:59.756Z,91483.38
2023-04-28T07:57:26.471Z,91485.41
2023-04-28T07:59:53.266Z,91469.97
2023-04-28T08:02:20.454Z,91469.06
2023-04-28T08:04:47.190Z,91467.78
2023-04-28T08:07:14.527Z,91447.78
2023-04-28T08:09:43.890Z,91448.81
2023-04-28T08:12:10.519Z,91455.53
2023-04-28T08:14:38.025Z,91456.91
2023-04-28T08:17:04.420Z,91443.72
2023-04-28T08:19:30.914Z,91449.38
2023-04-28T08:21:57.833Z,91442.75
2023-04-28T08:24:24.164Z,91429.31
2023-04-28T08:26:50.935Z,91405.75
2023-04-28T08:29:17.810Z,91392.59
2023-04-28T08:31:44.268Z,91393.38
2023-04-28T08:34:10.632Z,91415.63
2023-04-28T08:36:37.072Z,91414.13
2023-04-28T08:39:04.119Z,91425.16
2023-04-28T08:41:32.981Z,91424.38
2023-04-28T08:44:02.745Z,91442.88
2023-04-28T08:46:30.576Z,91437.81
2023-04-28T08:49:02.245Z,91434.50
2023-04-28T08:51:40.884Z,91424.78
2023-04-28T08:56:38.884Z,91411.53
2023-04-28T08:59:05.341Z,91401.63
2023-04-28T09:01:32.886Z,91393.81
2023-04-28T09:04:03.238Z,91392.84
2023-04-28T09:06:36.097Z,91394.25
2023-04-28T09:09:21.955Z,91391.28
2023-04-28T09:11:56.273Z,91416.25
2023-04-28T09:14:23.884Z,91405.22
2023-04-28T09:16:51.582Z,91392.38
2023-04-28T09:19:19.027Z,91386.09
2023-04-28T09:21:53.001Z,91384.66
2023-04-28T09:24:33.029Z,91348.44
2023-04-28T09:27:04.332Z,91345.53
2023-04-28T09:29:32.177Z,91324.97
2023-04-28T09:32:13.506Z,91309.03
2023-04-28T09:34:45.537Z,91312.91
2023-04-28T09:37:16.513Z,91289.66
2023-04-28T09:39:53.040Z,91280.69
2023-04-28T09:42:44.212Z,91269.41
2023-04-28T09:45:12.525Z,91271.19
2023-04-28T09:47:44.695Z,91245.56
2023-04-28T09:50:15.297Z,91203.75
2023-04-28T09:52:44.852Z,91185.16
2023-04-28T09:55:12.676Z,91177.19
2023-04-28T09:57:40.462Z,91178.75
2023-04-28T10:00:09.029Z,91184.25
2023-04-28T10:05:09.613Z,91242.91
2023-04-28T10:07:37.435Z,91255.84
2023-04-28T10:10:04.402Z,91261.53
2023-04-28T10:12:33.058Z,91251.34
2023-04-28T10:14:59.959Z,91235.19
2023-04-28T10:17:27.205Z,91228.97
2023-04-28T10:19:54.699Z,91256.47
2023-04-28T10:22:29.041Z,91288.72
2023-04-28T10:25:07.596Z,91301.00
2023-04-28T10:27:34.865Z,91322.97
2023-04-28T10:30:26.242Z,91328.03
2023-04-28T10:33:13.290Z,91342.31
2023-04-28T10:35:41.096Z,91372.34
2023-04-28T10:38:08.826Z,91397.63
2023-04-28T10:40:43.059Z,91393.16
2023-04-28T10:43:11.255Z,91416.66
2023-04-28T10:45:55.963Z,91442.88
2023-04-28T10:48:49.175Z,91408.22
2023-04-28T10:51:16.338Z,91394.59
2023-04-28T10:53:42.670Z,91371.91
2023-04-28T10:56:09.545Z,91362.22
2023-04-28T10:58:40.197Z,91345.56
2023-04-28T11:01:21.806Z,91357.91
2023-04-28T11:04:08.485Z,91360.22
2023-04-28T11:06:36.453Z,91354.66
2023-04-28T11:09:15.236Z,91335.56
2023-04-28T11:12:00.350Z,91332.22
2023-04-28T11:14:36.319Z,91360.34
2023-04-28T11:17:08.338Z,91365.28
2023-04-28T11:19:37.983Z,91402.09
2023-04-28T11:22:12.826Z,91393.06
2023-04-28T11:24:39.615Z,91368.19
2023-04-28T11:27:06.005Z,91337.19
2023-04-28T11:29:35.744Z,91332.66
2023-04-28T11:32:03.694Z,91289.00
2023-04-28T11:34:30.489Z,91268.06
2023-04-28T11:36:56.884Z,91231.09
2023-04-28T11:39:31.351Z,91193.63
2023-04-28T11:41:58.444Z,91154.72
2023-04-28T11:44:27.370Z,91180.00
2023-04-28T11:47:03.272Z,91212.28
2023-04-28T11:49:31.595Z,91184.41
2023-04-28T11:52:00.095Z,91248.09
2023-04-28T11:54:28.331Z,91279.69
2023-04-28T11:56:57.323Z,91272.41
2023-04-28T12:02:00.038Z,91254.91
2023-04-28T12:04:32.066Z,91297.09
2023-04-28T12:07:05.111Z,91255.75
2023-04-28T12:09:33.168Z,91181.09
2023-04-28T12:12:04.850Z,91126.25
2023-04-28T12:14:36.024Z,91127.41
2023-04-28T12:17:02.540Z,91074.19
2023-04-28T12:19:28.946Z,90958.91
2023-04-28T12:22:03.132Z,90781.72
2023-04-28T12:24:30.343Z,90691.25
2023-04-28T12:27:16.083Z,90662.00
2023-04-28T12:29:43.998Z,90774.19
2023-04-28T12:32:11.624Z,90801.31
2023-04-28T12:34:40.070Z,90878.38
2023-04-28T12:37:07.024Z,91111.66
2023-04-28T12:39:36.390Z,91242.19
2023-04-28T12:42:04.643Z,91273.19
2023-04-28T12:44:35.620Z,91253.31
2023-04-28T12:47:06.653Z,91284.09
2023-04-28T12:49:34.711Z,91306.13
2023-04-28T12:52:01.534Z,91327.31
2023-04-28T12:54:28.253Z,91335.31
2023-04-28T12:56:54.732Z,91341.34
2023-04-28T12:59:22.417Z,91372.53
2023-04-28T13:01:50.728Z,91381.97
2023-04-28T13:04:18.519Z,91389.09
2023-04-28T13:06:45.354Z,91366.66
2023-04-28T13:09:12.733Z,91372.28
2023-04-28T13:11:39.379Z,91384.63
2023-04-28T13:14:06.215Z,91415.81
2023-04-28T13:16:34.477Z,91432.88
2023-04-28T13:19:01.902Z,91448.03
2023-04-28T13:21:28.610Z,91481.84
2023-04-28T13:23:57.127Z,91484.13
2023-04-28T13:26:26.739Z,91487.38
2023-04-28T13:28:53.115Z,91450.16
2023-04-28T13:31:20.207Z,91446.78
2023-04-28T13:33:46.623Z,91439.97
2023-04-28T13:36:13.321Z,91427.09
2023-04-28T13:38:40.255Z,91465.38
2023-04-28T13:41:07.425Z,91454.16
2023-04-28T13:43:33.758Z,91460.34
2023-04-28T13:46:01.171Z,91496.06
2023-04-28T13:48:27.701Z,91537.81
2023-04-28T13:50:54.528Z,91553.81
2023-04-28T13:53:21.382Z,91649.38
2023-04-28T13:55:50.083Z,91633.31
2023-04-28T13:58:16.867Z,91893.78
2023-04-28T14:00:43.774Z,91848.72
2023-04-28T14:03:11.364Z,91796.38
2023-04-28T14:05:48.215Z,91757.66
2023-04-28T14:08:18.800Z,91724.38
2023-04-28T14:10:47.948Z,91699.44
2023-04-28T14:13:14.380Z,91671.50
2023-04-28T14:15:51.338Z,91654.56
2023-04-28T14:18:24.794Z,91712.31
2023-04-28T14:20:51.908Z,91797.41
2023-04-28T14:23:18.306Z,91842.03
2023-04-28T14:25:44.754Z,91880.63
2023-04-28T14:28:12.184Z,91914.94
2023-04-28T14:30:38.569Z,91992.28
2023-04-28T14:33:05.010Z,91990.94
2023-04-28T14:35:32.523Z,92019.75
2023-04-28T14:37:58.962Z,92045.44
2023-04-28T14:40:25.658Z,92081.53
2023-04-28T14:42:53.400Z,92120.63
2023-04-28T14:45:19.782Z,92154.50
2023-04-28T14:47:46.261Z,92133.44
2023-04-28T14:50:14.188Z,92112.84
2023-04-28T14:52:41.071Z,92149.69
2023-04-28T14:55:07.813Z,92162.50
2023-04-28T14:57:35.549Z,92181.78
2023-04-28T15:00:02.400Z,92188.25
2023-04-28T15:02:29.408Z,92190.22
2023-04-28T15:04:57.390Z,92158.22
2023-04-28T15:07:28.270Z,92159.25
2023-04-28T15:09:54.600Z,92160.94
2023-04-28T15:12:21.733Z,92161.16
2023-04-28T15:14:48.388Z,92164.16
2023-04-28T15:17:15.090Z,92191.72
2023-04-28T15:19:41.938Z,92171.22
2023-04-28T15:22:08.278Z,92164.03
2023-04-28T15:24:34.637Z,92156.91
2023-04-28T15:27:04.293Z,92138.69
2023-04-28T15:29:30.679Z,92109.50
2023-04-28T15:31:57.144Z,92101.41
2023-04-28T15:34:24.096Z,92122.56
2023-04-28T15:36:52.860Z,92088.88
2023-04-28T15:39:19.527Z,92080.13
2023-04-28T15:41:46.301Z,92055.88
2023-04-28T15:44:13.199Z,92059.19
2023-04-28T15:46:39.605Z,92047.06
2023-04-28T15:49:06.440Z,92045.34
2023-04-28T15:51:33.285Z,92034.09
2023-04-28T15:54:00.248Z,92041.78
2023-04-28T15:56:27.182Z,92044.28
2023-04-28T15:58:53.553Z,92064.09
2023-04-28T16:01:21.006Z,92074.56
2023-04-28T16:03:48.556Z,92068.94
2023-04-28T16:06:15.171Z,92055.50
2023-04-28T16:08:41.521Z,92065.41
2023-04-28T16:11:10.597Z,92069.66
2023-04-28T16:13:37.101Z,92080.53
2023-04-28T16:16:04.326Z,92070.16
2023-04-28T16:21:19.000Z,92110.78
2023-04-28T16:23:45.415Z,92154.41
2023-04-28T16:26:11.766Z,92171.75
2023-04-28T16:28:38.498Z,92187.19
2023-04-28T16:31:05.003Z,92209.06
2023-04-28T16:33:31.368Z,92225.53
2023-04-28T16:36:00.770Z,92220.84
2023-04-28T16:38:27.086Z,92221.97
2023-04-28T16:40:53.544Z,92203.09
2023-04-28T16:43:21.241Z,92211.94
2023-04-28T16:45:47.966Z,92185.50
2023-04-28T16:48:16.303Z,92148.38
2023-04-28T16:50:43.205Z,92134.56
2023-04-28T16:53:09.613Z,92129.44
2023-04-28T16:55:38.716Z,92114.13
2023-04-28T16:58:06.290Z,92080.09
2023-04-28T17:00:32.644Z,92062.00
2023-04-28T17:02:59.499Z,92061.66
2023-04-28T17:05:26.647Z,92034.31
2023-04-28T17:07:54.917Z,92025.09
2023-04-28T17:10:22.479Z,92003.00
2023-04-28T17:12:49.334Z,91985.44
2023-04-28T17:15:19.039Z,91974.97
2023-04-28T17:17:50.645Z,91987.88
2023-04-28T17:20:19.286Z,91991.63
2023-04-28T17:22:46.966Z,91981.16
2023-04-28T17:25:13.793Z,91974.72
2023-04-28T17:27:40.249Z,91964.19
2023-04-28T17:30:13.154Z,91914.66
2023-04-28T17:32:40.124Z,91888.72
2023-04-28T17:35:07.022Z,91869.59
2023-04-28T17:37:34.566Z,91848.34
2023-04-28T17:40:02.258Z,91825.75
2023-04-28T17:42:30.907Z,91817.75
2023-04-28T17:44:57.243Z,91806.22
2023-04-28T17:47:24.210Z,91812.38
2023-04-28T17:49:51.642Z,91814.47
2023-04-28T17:52:18.008Z,91815.44
2023-04-28T17:54:44.747Z,91817.75
2023-04-28T17:57:11.577Z,91834.69
2023-04-28T17:59:39.658Z,91849.38
2023-04-28T18:02:09.386Z,91861.84
2023-04-28T18:04:35.928Z,91859.94
2023-04-28T18:07:02.561Z,91890.44
2023-04-28T18:09:32.056Z,91894.63
2023-04-28T18:11:58.380Z,91907.97
2023-04-28T18:14:24.733Z,91924.66
2023-04-28T18:16:51.580Z,91957.44
2023-04-28T18:19:17.929Z,91979.72
2023-04-28T18:21:44.284Z,91984.97
2023-04-28T18:24:11.054Z,91994.19
2023-04-28T18:26:37.435Z,91988.66
2023-04-28T18:29:03.779Z,92006.53
2023-04-28T18:31:30.827Z,92004.53
2023-04-28T18:33:57.177Z,92006.09
2023-04-28T18:36:23.507Z,92007.63
2023-04-28T18:38:50.250Z,92023.63
2023-04-28T18:41:17.876Z,92035.19
2023-04-28T18:43:44.616Z,92043.41
2023-04-28T18:46:11.594Z,92060.41
2023-04-28T18:48:38.153Z,92082.19
2023-04-28T18:51:05.444Z,92101.69
2023-04-28T18:53:32.450Z,92160.91
2023-04-28T18:55:58.810Z,92198.88
2023-04-28T18:58:25.394Z,92214.38
2023-04-28T19:00:53.002Z,92227.63
2023-04-28T19:03:19.956Z,92251.41
2023-04-28T19:05:46.915Z,92264.72
2023-04-28T19:08:14.760Z,92272.88
2023-04-28T19:10:41.375Z,92290.41
2023-04-28T19:13:07.742Z,92265.28
2023-04-28T19:15:34.287Z,92257.75
2023-04-28T19:18:01.322Z,92254.66
2023-04-28T19:20:27.798Z,92271.41
2023-04-28T19:22:54.661Z,92272.25
2023-04-28T19:25:21.151Z,92281.31
2023-04-28T19:27:47.754Z,92293.69
2023-04-28T19:30:15.134Z,92298.41
2023-04-28T19:32:42.345Z,92316.09
2023-04-28T19:37:36.259Z,92320.81
2023-04-28T19:40:04.878Z,92324.25
2023-04-28T19:42:32.006Z,92339.75
2023-04-28T19:44:59.466Z,92358.03
2023-04-28T19:47:27.602Z,92370.25
2023-04-28T19:49:54.549Z,92392.47
2023-04-28T19:52:22.049Z,92398.25
2023-04-28T19:54:49.583Z,92419.69
2023-04-28T19:57:16.553Z,92449.38
2023-04-28T19:59:43.630Z,92457.19
2023-04-28T20:02:10.244Z,92455.00
2023-04-28T20:04:38.190Z,92453.47
2023-04-28T20:07:06.247Z,92455.97
2023-04-28T20:09:37.215Z,92441.56
2023-04-28T20:12:05.331Z,92439.09
2023-04-28T20:14:32.847Z,92454.53
2023-04-28T20:17:00.620Z,92469.03
2023-04-28T20:19:30.796Z,92498.34
2023-04-28T20:21:57.813Z,92505.84
2023-04-28T20:24:24.180Z,92509.75
2023-04-28T20:26:51.261Z,92523.44
2023-04-28T20:29:18.211Z,92529.59
2023-04-28T20:31:44.644Z,92535.97
2023-04-28T20:34:11.769Z,92539.09
2023-04-28T20:36:41.123Z,92548.69
2023-04-28T20:39:10.821Z,92555.75
2023-04-28T20:41:37.190Z,92559.72
2023-04-28T20:44:04.086Z,92551.28
2023-04-28T20:46:30.473Z,92557.16
2023-04-28T20:48:56.827Z,92556.63
2023-04-28T20:51:24.380Z,92569.50
2023-04-28T20:53:50.767Z,92554.88
2023-04-28T20:56:17.121Z,92566.06
2023-04-28T20:58:44.332Z,92550.94
2023-04-28T21:01:10.848Z,92559.97
2023-04-28T21:03:37.381Z,92542.38
2023-04-28T21:06:04.418Z,92543.84
2023-04-28T21:08:30.817Z,92536.94
2023-04-28T21:10:57.141Z,92534.16
2023-04-28T21:13:23.943Z,92531.03
2023-04-28T21:15:50.287Z,92522.94
2023-04-28T21:18:16.923Z,92519.09
2023-04-28T21:20:43.823Z,92512.88
2023-04-28T21:23:10.141Z,92519.75
2023-04-28T21:25:36.768Z,92532.47
2023-04-28T21:28:03.649Z,92542.81
2023-04-28T21:30:30.305Z,92555.72
2023-04-28T21:32:57.039Z,92584.34
2023-04-28T21:35:24.898Z,92604.63
2023-04-28T21:37:51.350Z,92643.50
2023-04-28T21:40:19.554Z,92657.19
2023-04-28T21:42:46.662Z,92664.69
2023-04-28T21:45:13.069Z,92672.34
2023-04-28T21:47:40.826Z,92664.59
2023-04-28T21:50:09.764Z,92655.88
2023-04-28T21:52:36.448Z,92657.81
2023-04-28T21:55:02.840Z,92659.56
2023-04-28T21:57:29.926Z,92754.78
2023-04-28T21:59:56.312Z,92731.22
2023-04-28T22:02:23.234Z,92720.78
2023-04-28T22:04:50.410Z,92701.09
2023-04-28T22:07:16.932Z,92692.44
2023-04-28T22:09:43.258Z,92679.63
2023-04-28T22:12:09.938Z,92674.53
2023-04-28T22:14:41.090Z,92641.94
2023-04-28T22:17:08.219Z,92618.50
2023-04-28T22:19:35.060Z,92593.28
2023-04-28T22:22:01.395Z,92580.03
2023-04-28T22:24:27.859Z,92545.59
2023-04-28T22:26:55.185Z,92526.72
2023-04-28T22:29:21.787Z,92516.84
2023-04-28T22:31:48.297Z,92522.00
2023-04-28T22:34:14.912Z,92522.47
2023-04-28T22:36:41.477Z,92506.03
2023-04-28T22:39:07.970Z,92429.69
2023-04-28T22:41:34.824Z,92327.09
2023-04-28T22:44:01.149Z,92232.28
2023-04-28T22:46:28.595Z,92279.38
2023-04-28T22:48:56.681Z,92219.94
2023-04-28T22:51:23.758Z,92186.31
2023-04-28T22:53:50.388Z,92170.53
2023-04-28T22:56:17.267Z,92136.81
2023-04-28T22:58:44.434Z,92076.28
2023-04-28T23:01:10.749Z,91998.75
2023-04-28T23:03:38.884Z,91891.22
2023-04-28T23:06:05.412Z,91755.81
2023-04-28T23:08:32.150Z,91586.50
2023-04-28T23:10:59.009Z,91565.78
2023-04-28T23:13:25.486Z,91551.38
2023-04-28T23:15:51.892Z,91533.97
2023-04-28T23:18:18.794Z,91513.28
2023-04-28T23:20:48.934Z,91490.72
2023-04-28T23:23:15.928Z,91449.66
2023-04-28T23:25:43.250Z,91398.19
2023-04-28T23:28:10.106Z,91300.19
2023-04-28T23:30:36.450Z,91336.03
2023-04-28T23:33:03.474Z,91346.09
2023-04-28T23:35:29.814Z,91360.38
2023-04-28T23:37:56.465Z,91376.50
2023-04-28T23:40:23.340Z,91390.66
2023-04-28T23:42:49.685Z,91299.31
2023-04-28T23:45:16.279Z,91325.22
2023-04-28T23:47:43.355Z,91345.75
2023-04-28T23:50:10.037Z,91377.81
2023-04-28T23:52:37.206Z,91386.88
2023-04-28T23:55:04.327Z,91401.22
2023-04-28T23:57:30.722Z,91424.53
2023-04-28T23:59:57.291Z,91426.59
